createdAt,value
2018-10-06T00:00:26.051Z,1.53
2018-10-06T00:02:54.543Z,1.87
2018-10-06T00:05:22.429Z,2.53
2018-10-06T00:07:50.599Z,2.00
2018-10-06T00:10:18.415Z,1.80
2018-10-06T00:12:46.247Z,2.00
2018-10-06T00:15:14.436Z,1.90
2018-10-06T00:17:42.807Z,1.83
2018-10-06T00:20:11.432Z,1.70
2018-10-06T00:22:39.271Z,2.17
2018-10-06T00:25:07.428Z,1.73
2018-10-06T00:27:35.254Z,1.97
2018-10-06T00:30:03.126Z,1.50
2018-10-06T00:32:31.692Z,1.70
2018-10-06T00:34:59.525Z,1.43
2018-10-06T00:37:27.982Z,1.70
2018-10-06T00:39:55.823Z,1.97
2018-10-06T00:42:24.635Z,1.53
2018-10-06T00:44:53.107Z,1.87
2018-10-06T00:47:21.277Z,1.30
2018-10-06T00:49:49.779Z,1.53
2018-10-06T00:52:17.612Z,1.57
2018-10-06T00:54:45.847Z,2.37
2018-10-06T00:57:13.682Z,1.80
2018-10-06T00:59:41.622Z,1.70
2018-10-06T01:02:09.521Z,2.00
2018-10-06T01:04:37.852Z,1.80
2018-10-06T01:07:06.292Z,1.60
2018-10-06T01:09:34.710Z,1.80
2018-10-06T01:12:02.581Z,1.60
2018-10-06T01:14:30.419Z,1.90
2018-10-06T01:16:58.242Z,1.87
2018-10-06T01:19:26.803Z,1.63
2018-10-06T01:21:55.159Z,1.53
2018-10-06T01:24:23.574Z,1.60
2018-10-06T01:26:51.463Z,1.97
2018-10-06T01:29:19.302Z,1.70
2018-10-06T01:31:47.139Z,2.20
2018-10-06T01:34:15.408Z,1.50
2018-10-06T01:36:43.822Z,1.70
2018-10-06T01:39:11.659Z,1.67
2018-10-06T01:41:39.981Z,1.50
2018-10-06T01:44:08.338Z,1.67
2018-10-06T01:46:36.795Z,1.37
2018-10-06T01:49:05.459Z,1.50
2018-10-06T01:51:33.345Z,1.70
2018-10-06T01:54:01.203Z,1.43
2018-10-06T01:56:29.035Z,1.70
2018-10-06T01:58:57.412Z,1.60
2018-10-06T02:01:25.686Z,1.77
2018-10-06T02:03:54.327Z,1.67
2018-10-06T02:06:22.878Z,1.47
2018-10-06T02:08:51.452Z,1.40
2018-10-06T02:11:20.034Z,1.47
2018-10-06T02:13:47.881Z,1.10
2018-10-06T02:16:16.525Z,1.43
2018-10-06T02:18:44.960Z,1.60
2018-10-06T02:21:13.400Z,1.80
2018-10-06T02:23:41.899Z,1.57
2018-10-06T02:26:09.763Z,1.73
2018-10-06T02:28:38.323Z,1.90
2018-10-06T02:31:06.134Z,1.63
2018-10-06T02:33:33.962Z,1.40
2018-10-06T02:36:01.798Z,1.80
2018-10-06T02:38:29.663Z,2.00
2018-10-06T02:40:57.516Z,1.80
2018-10-06T02:43:25.366Z,1.63
2018-10-06T02:45:53.224Z,1.50
2018-10-06T02:48:21.090Z,1.50
2018-10-06T02:50:48.990Z,1.63
2018-10-06T02:53:16.818Z,1.70
2018-10-06T02:55:45.087Z,1.47
2018-10-06T02:58:13.702Z,1.90
2018-10-06T03:00:41.919Z,1.40
2018-10-06T03:03:10.394Z,1.83
2018-10-06T03:05:38.806Z,2.47
2018-10-06T03:08:07.275Z,1.83
2018-10-06T03:10:35.134Z,2.10
2018-10-06T03:13:03.019Z,2.23
2018-10-06T03:15:30.837Z,2.20
2018-10-06T03:17:58.946Z,1.77
2018-10-06T03:20:27.303Z,1.73
2018-10-06T03:22:55.738Z,2.00
2018-10-06T03:25:23.563Z,2.13
2018-10-06T03:27:52.410Z,1.67
2018-10-06T03:30:20.941Z,1.70
2018-10-06T03:32:48.775Z,2.03
2018-10-06T03:35:17.140Z,2.07
2018-10-06T03:37:44.976Z,1.70
2018-10-06T03:40:12.815Z,2.00
2018-10-06T03:42:41.299Z,1.93
2018-10-06T03:45:09.187Z,1.83
2018-10-06T03:47:37.792Z,1.87
2018-10-06T03:50:06.441Z,1.80
2018-10-06T03:52:34.275Z,1.63
2018-10-06T03:55:02.138Z,1.60
2018-10-06T03:57:30.773Z,2.10
2018-10-06T03:59:59.415Z,1.80
2018-10-06T04:02:27.243Z,2.13
2018-10-06T04:04:55.064Z,1.73
2018-10-06T04:07:23.314Z,1.93
2018-10-06T04:09:51.547Z,2.00
2018-10-06T04:12:19.791Z,2.23
2018-10-06T04:14:47.635Z,1.80
2018-10-06T04:17:15.454Z,1.80
2018-10-06T04:19:43.331Z,1.83
2018-10-06T04:22:11.587Z,1.93
2018-10-06T04:24:39.454Z,1.90
2018-10-06T04:27:07.319Z,1.80
2018-10-06T04:29:35.140Z,2.10
2018-10-06T04:32:03.025Z,1.83
2018-10-06T04:34:30.887Z,1.80
2018-10-06T04:36:59.277Z,1.70
2018-10-06T04:39:27.775Z,1.80
2018-10-06T04:41:55.894Z,2.40
2018-10-06T04:44:23.743Z,1.90
2018-10-06T04:46:52.053Z,1.80
2018-10-06T04:49:19.905Z,1.80
2018-10-06T04:51:48.333Z,1.90
2018-10-06T04:54:16.591Z,1.80
2018-10-06T04:56:44.426Z,1.80
2018-10-06T04:59:12.327Z,1.70
2018-10-06T05:01:40.190Z,2.00
2018-10-06T05:04:08.719Z,2.37
2018-10-06T05:06:36.539Z,1.97
2018-10-06T05:09:04.962Z,2.30
2018-10-06T05:11:33.366Z,1.60
2018-10-06T05:14:01.976Z,1.67
2018-10-06T05:16:30.399Z,1.80
2018-10-06T05:18:58.856Z,2.00
2018-10-06T05:21:27.263Z,1.53
2018-10-06T05:23:55.432Z,2.27
2018-10-06T05:26:23.290Z,2.00
2018-10-06T05:28:51.170Z,1.87
2018-10-06T05:31:19.690Z,1.93
2018-10-06T05:33:48.337Z,1.87
2018-10-06T05:36:16.995Z,1.80
2018-10-06T05:38:45.587Z,2.00
2018-10-06T05:41:14.006Z,1.90
2018-10-06T05:43:42.690Z,2.27
2018-10-06T05:46:11.302Z,2.20
2018-10-06T05:48:41.196Z,1.97
2018-10-06T05:51:09.740Z,1.80
2018-10-06T05:53:38.189Z,2.50
2018-10-06T05:56:06.823Z,2.00
2018-10-06T05:58:35.287Z,2.00
2018-10-06T06:01:03.689Z,1.70
2018-10-06T06:03:32.139Z,1.83
2018-10-06T06:06:00.374Z,1.83
2018-10-06T06:08:28.884Z,2.03
2018-10-06T06:10:57.576Z,2.00
2018-10-06T06:13:26.143Z,2.03
2018-10-06T06:15:54.621Z,2.00
2018-10-06T06:18:23.063Z,1.93
2018-10-06T06:20:51.624Z,2.13
2018-10-06T06:23:20.632Z,1.87
2018-10-06T06:25:49.251Z,2.00
2018-10-06T06:28:17.713Z,2.00
2018-10-06T06:30:46.255Z,2.10
2018-10-06T06:33:14.802Z,2.20
2018-10-06T06:35:43.225Z,2.17
2018-10-06T06:38:11.948Z,2.50
2018-10-06T06:40:40.451Z,2.40
2018-10-06T06:43:08.727Z,2.13
2018-10-06T06:45:37.228Z,2.43
2018-10-06T06:48:05.604Z,2.23
2018-10-06T06:50:33.839Z,2.40
2018-10-06T06:53:02.129Z,2.37
2018-10-06T06:55:30.733Z,2.73
2018-10-06T06:57:58.959Z,2.70
2018-10-06T07:00:27.249Z,2.20
2018-10-06T07:02:55.670Z,2.53
2018-10-06T07:05:24.795Z,2.50
2018-10-06T07:07:55.000Z,2.37
2018-10-06T07:10:23.932Z,2.40
2018-10-06T07:12:52.499Z,2.27
2018-10-06T07:15:20.806Z,2.40
2018-10-06T07:17:49.287Z,2.43
2018-10-06T07:20:17.890Z,2.20
2018-10-06T07:22:46.381Z,2.13
2018-10-06T07:25:15.010Z,2.40
2018-10-06T07:27:43.633Z,2.33
2018-10-06T07:30:12.063Z,2.13
2018-10-06T07:32:39.950Z,1.73
2018-10-06T07:35:08.568Z,2.03
2018-10-06T07:37:37.165Z,2.10
2018-10-06T07:40:05.443Z,2.60
2018-10-06T07:42:33.864Z,2.20
2018-10-06T07:45:03.127Z,2.10
2018-10-06T07:47:31.365Z,2.43
2018-10-06T07:49:59.995Z,2.23
2018-10-06T07:52:28.614Z,2.40
2018-10-06T07:54:57.255Z,2.50
2018-10-06T07:57:25.883Z,1.70
2018-10-06T07:59:54.527Z,2.30
2018-10-06T08:02:23.170Z,2.30
2018-10-06T08:04:51.834Z,2.30
2018-10-06T08:07:20.489Z,2.93
2018-10-06T08:09:49.079Z,2.23
2018-10-06T08:12:17.499Z,2.20
2018-10-06T08:14:46.177Z,3.23
2018-10-06T08:17:15.188Z,2.67
2018-10-06T08:19:43.844Z,2.43
2018-10-06T08:22:12.499Z,2.07
2018-10-06T08:24:41.321Z,2.07
2018-10-06T08:27:09.767Z,2.00
2018-10-06T08:29:37.975Z,2.33
2018-10-06T08:32:06.507Z,2.13
2018-10-06T08:34:35.079Z,2.20
2018-10-06T08:37:03.687Z,2.20
2018-10-06T08:39:32.330Z,2.30
2018-10-06T08:42:01.009Z,2.93
2018-10-06T08:44:29.575Z,3.77
2018-10-06T08:46:58.296Z,5.70
2018-10-06T08:49:26.761Z,3.07
2018-10-06T08:51:55.464Z,2.53
2018-10-06T08:54:23.907Z,2.10
2018-10-06T08:56:51.832Z,2.03
2018-10-06T08:59:20.447Z,2.30
2018-10-06T09:01:49.056Z,2.20
2018-10-06T09:04:18.438Z,2.00
2018-10-06T09:06:46.766Z,2.27
2018-10-06T09:09:15.398Z,2.70
2018-10-06T09:11:44.036Z,2.47
2018-10-06T09:14:12.564Z,2.40
2018-10-06T09:16:41.524Z,2.23
2018-10-06T09:19:10.144Z,2.60
2018-10-06T09:21:39.877Z,2.00
2018-10-06T09:24:08.429Z,2.43
2018-10-06T09:26:37.005Z,2.30
2018-10-06T09:29:05.710Z,2.00
2018-10-06T09:31:34.448Z,2.30
2018-10-06T09:34:02.720Z,2.17
2018-10-06T09:36:31.361Z,2.13
2018-10-06T09:38:59.777Z,2.30
2018-10-06T09:41:28.051Z,2.17
2018-10-06T09:43:56.469Z,2.90
2018-10-06T09:46:25.096Z,2.70
2018-10-06T09:48:53.763Z,2.30
2018-10-06T09:51:22.407Z,2.67
2018-10-06T09:53:51.242Z,2.53
2018-10-06T09:56:19.889Z,2.30
2018-10-06T09:58:48.511Z,2.40
2018-10-06T10:01:22.021Z,2.20
2018-10-06T10:03:55.445Z,2.77
2018-10-06T10:06:23.795Z,2.37
2018-10-06T10:08:52.268Z,2.33
2018-10-06T10:11:21.090Z,2.70
2018-10-06T10:13:48.974Z,2.33
2018-10-06T10:16:17.604Z,2.20
2018-10-06T10:18:46.028Z,2.17
2018-10-06T10:21:14.463Z,2.27
2018-10-06T10:23:42.963Z,2.40
2018-10-06T10:26:10.808Z,2.43
2018-10-06T10:28:39.194Z,2.83
2018-10-06T10:31:07.639Z,2.53
2018-10-06T10:33:36.275Z,2.13
2018-10-06T10:36:04.910Z,2.30
2018-10-06T10:38:33.555Z,2.50
2018-10-06T10:41:01.668Z,2.57
2018-10-06T10:43:30.233Z,2.30
2018-10-06T10:45:58.842Z,2.07
2018-10-06T10:48:27.299Z,2.37
2018-10-06T10:50:55.751Z,2.30
2018-10-06T10:53:24.559Z,2.53
2018-10-06T10:55:53.210Z,2.80
2018-10-06T10:58:21.940Z,3.00
2018-10-06T11:00:49.784Z,2.77
2018-10-06T11:03:17.654Z,2.73
2018-10-06T11:05:46.167Z,3.57
2018-10-06T11:08:14.457Z,2.47
2018-10-06T11:10:42.839Z,1.93
2018-10-06T11:13:11.110Z,2.33
2018-10-06T11:15:38.964Z,2.57
2018-10-06T11:18:06.926Z,2.70
2018-10-06T11:20:35.129Z,2.07
2018-10-06T11:23:02.982Z,1.97
2018-10-06T11:25:30.837Z,2.20
2018-10-06T11:27:58.655Z,2.07
2018-10-06T11:30:27.063Z,2.47
2018-10-06T11:32:54.895Z,2.40
2018-10-06T11:35:22.771Z,2.40
2018-10-06T11:37:50.691Z,2.20
2018-10-06T11:40:18.508Z,2.43
2018-10-06T11:42:46.327Z,2.40
2018-10-06T11:45:14.178Z,2.27
2018-10-06T11:47:42.024Z,2.70
2018-10-06T11:50:09.888Z,2.30
2018-10-06T11:52:37.707Z,2.53
2018-10-06T11:55:05.578Z,2.40
2018-10-06T11:57:33.423Z,2.70
2018-10-06T12:00:01.360Z,1.93
2018-10-06T12:02:29.235Z,2.23
2018-10-06T12:04:57.074Z,2.13
2018-10-06T12:07:24.890Z,3.43
2018-10-06T12:09:52.725Z,2.30
2018-10-06T12:12:21.309Z,2.90
2018-10-06T12:14:49.159Z,2.70
2018-10-06T12:17:16.974Z,2.17
2018-10-06T12:19:44.825Z,2.20
2018-10-06T12:22:12.651Z,2.67
2018-10-06T12:24:40.483Z,2.47
2018-10-06T12:27:08.372Z,2.30
2018-10-06T12:29:36.204Z,2.50
2018-10-06T12:32:04.038Z,2.40
2018-10-06T12:34:31.946Z,2.00
2018-10-06T12:37:00.352Z,2.63
2018-10-06T12:39:28.797Z,2.13
2018-10-06T12:41:57.253Z,2.47
2018-10-06T12:44:25.650Z,2.30
2018-10-06T12:46:53.905Z,2.77
2018-10-06T12:49:22.153Z,2.10
2018-10-06T12:51:50.835Z,2.10
2018-10-06T12:54:19.445Z,1.90
2018-10-06T12:56:47.851Z,3.20
2018-10-06T12:59:16.091Z,2.13
2018-10-06T13:01:43.912Z,2.20
2018-10-06T13:04:11.733Z,1.90
2018-10-06T13:06:39.616Z,2.83
2018-10-06T13:09:08.448Z,2.20
2018-10-06T13:11:36.305Z,2.27
2018-10-06T13:14:04.144Z,2.00
2018-10-06T13:16:31.967Z,2.30
2018-10-06T13:18:59.787Z,2.03
2018-10-06T13:21:28.364Z,1.93
2018-10-06T13:23:56.207Z,2.30
2018-10-06T13:26:24.030Z,2.10
2018-10-06T13:28:51.843Z,3.07
2018-10-06T13:31:19.739Z,2.67
2018-10-06T13:33:47.611Z,2.23
2018-10-06T13:36:15.448Z,2.50
2018-10-06T13:38:43.334Z,2.10
2018-10-06T13:41:11.198Z,2.90
2018-10-06T13:43:39.722Z,2.23
2018-10-06T13:46:08.324Z,2.20
2018-10-06T13:48:36.886Z,2.10
2018-10-06T13:51:05.034Z,2.70
2018-10-06T13:53:32.849Z,2.87
2018-10-06T13:56:00.727Z,2.40
2018-10-06T13:58:28.570Z,2.20
2018-10-06T14:00:56.451Z,8.33
2018-10-06T14:03:24.333Z,6.20
2018-10-06T14:05:52.244Z,7.47
2018-10-06T14:08:20.400Z,4.80
2018-10-06T14:10:48.290Z,9.30
2018-10-06T14:13:16.120Z,4.03
2018-10-06T14:15:43.949Z,6.60
2018-10-06T14:18:11.863Z,10.83
2018-10-06T14:20:39.989Z,6.90
2018-10-06T14:23:07.816Z,9.17
2018-10-06T14:25:35.662Z,13.53
2018-10-06T14:28:03.496Z,5.23
2018-10-06T14:30:31.346Z,3.73
2018-10-06T14:32:59.207Z,4.63
2018-10-06T14:35:27.051Z,4.60
2018-10-06T14:37:54.989Z,11.27
2018-10-06T14:40:23.141Z,6.13
2018-10-06T14:42:51.530Z,8.23
2018-10-06T14:45:19.511Z,8.43
2018-10-06T14:47:48.011Z,13.93
2018-10-06T14:50:16.543Z,15.00
2018-10-06T14:52:44.874Z,7.40
2018-10-06T14:55:13.357Z,5.10
2018-10-06T14:57:41.983Z,9.57
2018-10-06T15:00:09.960Z,6.53
2018-10-06T15:02:37.788Z,6.07
2018-10-06T15:05:05.659Z,3.27
2018-10-06T15:07:33.551Z,3.30
2018-10-06T15:10:01.416Z,4.77
2018-10-06T15:12:29.323Z,3.40
2018-10-06T15:14:57.207Z,3.63
2018-10-06T15:17:25.023Z,3.03
2018-10-06T15:19:52.870Z,2.80
2018-10-06T15:22:20.690Z,2.70
2018-10-06T15:24:48.662Z,3.47
2018-10-06T15:27:16.481Z,2.73
2018-10-06T15:29:44.341Z,3.00
2018-10-06T15:32:12.164Z,3.00
2018-10-06T15:34:39.986Z,2.93
2018-10-06T15:37:07.908Z,3.13
2018-10-06T15:39:35.744Z,3.13
2018-10-06T15:42:03.607Z,3.00
2018-10-06T15:44:31.448Z,2.90
2018-10-06T15:46:59.328Z,3.00
2018-10-06T15:49:27.899Z,2.70
2018-10-06T15:51:56.459Z,2.80
2018-10-06T15:54:24.867Z,3.23
2018-10-06T15:56:53.532Z,3.33
2018-10-06T15:59:21.352Z,4.00
2018-10-06T16:01:49.270Z,2.80
2018-10-06T16:04:17.130Z,3.20
2018-10-06T16:06:45.005Z,3.20
2018-10-06T16:09:12.834Z,4.47
2018-10-06T16:11:41.024Z,2.27
2018-10-06T16:14:09.457Z,3.20
2018-10-06T16:16:37.890Z,3.10
2018-10-06T16:19:06.910Z,2.80
2018-10-06T16:21:34.772Z,2.90
2018-10-06T16:24:02.580Z,2.97
2018-10-06T16:26:30.422Z,2.90
2018-10-06T16:28:58.272Z,2.93
2018-10-06T16:31:26.090Z,2.97
2018-10-06T16:33:53.923Z,3.37
2018-10-06T16:36:21.767Z,2.80
2018-10-06T16:38:49.660Z,3.20
2018-10-06T16:41:18.204Z,3.50
2018-10-06T16:43:46.041Z,2.90
2018-10-06T16:46:13.859Z,2.80
2018-10-06T16:48:41.930Z,3.00
2018-10-06T16:51:10.968Z,3.53
2018-10-06T16:53:39.657Z,3.20
2018-10-06T16:56:08.003Z,3.10
2018-10-06T16:58:35.859Z,3.63
2018-10-06T17:01:03.727Z,3.50
2018-10-06T17:03:31.542Z,2.87
2018-10-06T17:05:59.460Z,3.13
2018-10-06T17:08:27.342Z,3.83
2018-10-06T17:10:55.294Z,4.30
2018-10-06T17:13:23.382Z,3.77
2018-10-06T17:15:51.256Z,2.83
2018-10-06T17:18:19.157Z,3.30
2018-10-06T17:20:47.711Z,3.73
2018-10-06T17:23:15.603Z,3.53
2018-10-06T17:25:43.505Z,3.10
2018-10-06T17:28:11.332Z,3.30
2018-10-06T17:30:39.175Z,3.40
2018-10-06T17:33:07.001Z,3.00
2018-10-06T17:35:34.830Z,3.30
2018-10-06T17:38:02.941Z,3.60
2018-10-06T17:40:30.788Z,2.80
2018-10-06T17:42:58.645Z,3.40
2018-10-06T17:45:26.692Z,3.20
2018-10-06T17:47:54.547Z,3.40
2018-10-06T17:50:22.440Z,3.23
2018-10-06T17:52:50.274Z,3.30
2018-10-06T17:55:18.143Z,3.23
2018-10-06T17:57:46.097Z,3.90
2018-10-06T18:00:13.976Z,2.70
2018-10-06T18:02:41.816Z,3.53
2018-10-06T18:05:09.647Z,3.23
2018-10-06T18:07:37.508Z,3.07
2018-10-06T18:10:05.373Z,3.00
2018-10-06T18:12:33.219Z,3.40
2018-10-06T18:15:01.039Z,3.50
2018-10-06T18:17:28.896Z,3.27
2018-10-06T18:19:56.756Z,3.50
2018-10-06T18:22:24.616Z,4.27
2018-10-06T18:24:52.456Z,3.27
2018-10-06T18:27:20.454Z,3.50
2018-10-06T18:29:48.346Z,3.43
2018-10-06T18:32:16.180Z,3.43
2018-10-06T18:34:44.781Z,3.57
2018-10-06T18:37:12.703Z,3.50
2018-10-06T18:39:40.463Z,3.37
2018-10-06T18:42:08.307Z,4.03
2018-10-06T18:44:36.134Z,3.60
2018-10-06T18:47:04.203Z,3.40
2018-10-06T18:49:32.048Z,3.13
2018-10-06T18:52:00.503Z,3.50
2018-10-06T18:54:28.951Z,3.57
2018-10-06T18:56:56.804Z,3.00
2018-10-06T18:59:24.966Z,3.23
2018-10-06T19:01:53.636Z,3.03
2018-10-06T19:04:22.172Z,3.23
2018-10-06T19:06:50.524Z,3.17
2018-10-06T19:09:18.502Z,3.30
2018-10-06T19:11:46.369Z,3.07
2018-10-06T19:14:14.380Z,2.97
2018-10-06T19:16:42.943Z,3.37
2018-10-06T19:19:11.566Z,3.70
2018-10-06T19:21:39.405Z,3.53
2018-10-06T19:24:07.743Z,3.37
2018-10-06T19:26:36.307Z,3.37
2018-10-06T19:29:04.761Z,2.90
2018-10-06T19:31:33.639Z,3.27
2018-10-06T19:34:02.056Z,2.70
2018-10-06T19:36:29.913Z,3.20
2018-10-06T19:38:58.302Z,3.43
2018-10-06T19:41:26.274Z,3.97
2018-10-06T19:43:54.112Z,2.90
2018-10-06T19:46:22.665Z,3.30
2018-10-06T19:48:50.498Z,3.97
2018-10-06T19:51:18.943Z,3.67
2018-10-06T19:53:47.565Z,3.63
2018-10-06T19:56:15.982Z,2.87
2018-10-06T19:58:45.345Z,3.10
2018-10-06T20:01:14.368Z,3.30
2018-10-06T20:03:43.046Z,3.13
2018-10-06T20:06:11.704Z,3.23
2018-10-06T20:08:40.735Z,3.33
2018-10-06T20:11:09.695Z,3.33
2018-10-06T20:13:38.236Z,4.00
2018-10-06T20:16:07.174Z,3.40
2018-10-06T20:18:36.534Z,3.90
2018-10-06T20:21:05.207Z,3.40
2018-10-06T20:23:33.852Z,3.83
2018-10-06T20:26:02.483Z,3.40
2018-10-06T20:28:31.183Z,4.03
2018-10-06T20:30:59.879Z,3.63
2018-10-06T20:33:28.567Z,3.47
2018-10-06T20:35:57.296Z,3.50
2018-10-06T20:38:25.811Z,3.60
2018-10-06T20:40:54.492Z,3.97
2018-10-06T20:43:22.854Z,3.33
2018-10-06T20:45:51.338Z,3.60
2018-10-06T20:48:19.791Z,4.07
2018-10-06T20:50:48.418Z,3.77
2018-10-06T20:53:17.038Z,3.73
2018-10-06T20:55:45.641Z,3.37
2018-10-06T20:58:14.066Z,3.40
2018-10-06T21:00:42.492Z,3.10
2018-10-06T21:03:11.341Z,3.40
2018-10-06T21:05:39.819Z,3.63
2018-10-06T21:08:07.758Z,3.33
2018-10-06T21:10:36.285Z,3.60
2018-10-06T21:13:04.915Z,3.50
2018-10-06T21:15:33.380Z,3.73
2018-10-06T21:18:01.796Z,3.23
2018-10-06T21:20:30.243Z,3.40
2018-10-06T21:22:58.870Z,2.80
2018-10-06T21:25:26.743Z,3.50
2018-10-06T21:27:54.571Z,3.07
2018-10-06T21:30:22.407Z,3.90
2018-10-06T21:32:50.461Z,3.67
2018-10-06T21:35:18.286Z,4.00
2018-10-06T21:37:46.129Z,3.50
2018-10-06T21:40:14.318Z,3.73
2018-10-06T21:42:42.143Z,4.07
2018-10-06T21:45:09.972Z,3.00
2018-10-06T21:47:37.805Z,3.30
2018-10-06T21:50:05.635Z,3.33
2018-10-06T21:52:33.491Z,3.70
2018-10-06T21:55:02.101Z,3.37
2018-10-06T21:57:29.932Z,3.43
2018-10-06T21:59:57.748Z,4.20
2018-10-06T22:02:25.559Z,3.70
2018-10-06T22:04:53.399Z,3.30
2018-10-06T22:07:21.725Z,4.20
2018-10-06T22:09:49.962Z,3.63
2018-10-06T22:12:18.247Z,3.37
2018-10-06T22:14:46.654Z,3.57
2018-10-06T22:17:15.117Z,3.40
2018-10-06T22:19:43.316Z,3.70
2018-10-06T22:22:11.154Z,3.70
2018-10-06T22:24:39.649Z,3.57
2018-10-06T22:27:07.545Z,3.63
2018-10-06T22:29:35.363Z,3.30
2018-10-06T22:32:03.790Z,3.60
2018-10-06T22:34:32.405Z,3.70
2018-10-06T22:37:00.900Z,3.60
2018-10-06T22:39:29.503Z,3.47
2018-10-06T22:41:57.339Z,3.90
2018-10-06T22:44:25.803Z,4.20
2018-10-06T22:46:53.627Z,4.30
2018-10-06T22:49:21.454Z,4.57
2018-10-06T22:51:49.287Z,4.67
2018-10-06T22:54:17.548Z,3.83
2018-10-06T22:56:45.673Z,4.67
2018-10-06T22:59:13.590Z,3.63
2018-10-06T23:01:41.501Z,3.67
2018-10-06T23:04:09.323Z,3.93
2018-10-06T23:06:37.218Z,3.67
2018-10-06T23:09:06.999Z,4.20
2018-10-06T23:11:35.268Z,4.20
2018-10-06T23:14:03.091Z,4.43
2018-10-06T23:16:30.970Z,4.37
2018-10-06T23:18:58.898Z,4.33
2018-10-06T23:21:27.478Z,4.20
2018-10-06T23:23:55.402Z,4.33
2018-10-06T23:26:23.741Z,4.63
2018-10-06T23:28:52.547Z,4.70
2018-10-06T23:31:21.067Z,4.13
2018-10-06T23:33:48.987Z,4.30
2018-10-06T23:36:16.750Z,4.70
2018-10-06T23:38:44.707Z,4.37
2018-10-06T23:41:12.635Z,4.30
2018-10-06T23:43:41.262Z,4.03
2018-10-06T23:46:10.082Z,4.10
2018-10-06T23:48:38.566Z,4.23
2018-10-06T23:51:06.871Z,3.93
2018-10-06T23:53:35.092Z,4.77
2018-10-06T23:56:03.659Z,3.83
2018-10-06T23:58:31.890Z,3.93
